createdAt,value
2019-02-19T00:02:04.451Z,13.78
2019-02-19T00:04:36.550Z,14.98
2019-02-19T00:07:06.671Z,13.75
2019-02-19T00:09:36.822Z,13.80
2019-02-19T00:12:08.876Z,14.03
2019-02-19T00:14:40.887Z,15.90
2019-02-19T00:17:13.555Z,14.68
2019-02-19T00:19:55.679Z,15.08
2019-02-19T00:22:25.795Z,12.75
2019-02-19T00:24:55.871Z,13.88
2019-02-19T00:27:25.981Z,14.20
2019-02-19T00:29:58.003Z,14.68
2019-02-19T00:32:29.056Z,13.53
2019-02-19T00:34:59.163Z,13.65
2019-02-19T00:37:30.177Z,13.83
2019-02-19T00:40:01.228Z,13.93
2019-02-19T00:42:32.276Z,14.73
2019-02-19T00:45:03.383Z,13.68
2019-02-19T00:47:39.280Z,14.30
2019-02-19T00:50:10.500Z,13.30
2019-02-19T00:52:44.735Z,14.78
2019-02-19T00:55:26.020Z,16.15
2019-02-19T00:57:56.275Z,15.68
2019-02-19T01:00:26.331Z,14.83
2019-02-19T01:02:56.419Z,14.95
2019-02-19T01:05:27.539Z,14.70
2019-02-19T01:07:57.647Z,14.55
2019-02-19T01:10:27.843Z,13.75
2019-02-19T01:12:58.887Z,14.40
2019-02-19T01:15:29.049Z,15.48
2019-02-19T01:17:59.169Z,15.08
2019-02-19T01:20:30.263Z,14.60
2019-02-19T01:23:01.327Z,15.10
2019-02-19T01:25:31.491Z,14.23
2019-02-19T01:28:01.575Z,14.78
2019-02-19T01:30:31.671Z,13.43
2019-02-19T01:33:02.710Z,14.98
2019-02-19T01:35:32.821Z,14.10
2019-02-19T01:38:04.882Z,14.38
2019-02-19T01:40:34.983Z,14.65
2019-02-19T01:43:06.051Z,14.28
2019-02-19T01:45:36.211Z,15.85
2019-02-19T01:48:06.311Z,16.37
2019-02-19T01:50:36.406Z,15.05
2019-02-19T01:53:06.523Z,14.40
2019-02-19T01:55:36.615Z,15.60
2019-02-19T01:58:06.711Z,15.25
2019-02-19T02:00:36.812Z,14.78
2019-02-19T02:03:06.727Z,16.40
2019-02-19T02:05:36.823Z,15.93
2019-02-19T02:08:07.859Z,14.28
2019-02-19T02:10:37.959Z,14.68
2019-02-19T02:13:08.064Z,16.17
2019-02-19T02:15:42.654Z,17.20
2019-02-19T02:18:13.867Z,15.35
2019-02-19T02:20:44.003Z,15.55
2019-02-19T02:23:14.115Z,15.75
2019-02-19T02:25:44.217Z,14.90
2019-02-19T02:28:14.303Z,16.85
2019-02-19T02:30:44.399Z,15.95
2019-02-19T02:33:14.506Z,15.05
2019-02-19T02:35:47.210Z,15.08
2019-02-19T02:38:20.331Z,15.63
2019-02-19T02:40:50.834Z,13.18
2019-02-19T02:43:22.953Z,16.73
2019-02-19T02:45:53.885Z,16.10
2019-02-19T02:48:24.032Z,15.08
2019-02-19T02:50:54.103Z,14.85
2019-02-19T02:53:28.021Z,16.07
2019-02-19T02:56:05.356Z,15.72
2019-02-19T02:58:41.266Z,15.90
2019-02-19T03:01:11.340Z,15.13
2019-02-19T03:03:42.416Z,13.95
2019-02-19T03:06:14.187Z,16.42
2019-02-19T03:08:44.287Z,13.85
2019-02-19T03:11:16.356Z,14.90
2019-02-19T03:13:48.420Z,15.08
2019-02-19T03:16:22.518Z,15.10
2019-02-19T03:19:00.327Z,15.72
2019-02-19T03:21:30.423Z,15.60
2019-02-19T03:24:02.302Z,14.85
2019-02-19T03:26:32.395Z,15.72
2019-02-19T03:29:02.501Z,14.90
2019-02-19T03:31:32.585Z,14.28
2019-02-19T03:34:02.677Z,16.15
2019-02-19T03:36:35.495Z,15.38
2019-02-19T03:39:05.986Z,16.77
2019-02-19T03:41:41.020Z,15.88
2019-02-19T03:44:12.023Z,14.47
2019-02-19T03:46:50.976Z,15.28
2019-02-19T03:49:25.152Z,14.20
2019-02-19T03:51:55.261Z,15.45
2019-02-19T03:54:27.286Z,15.23
2019-02-19T03:56:57.379Z,15.05
2019-02-19T03:59:27.549Z,16.10
2019-02-19T04:01:57.671Z,15.25
2019-02-19T04:04:27.994Z,15.78
2019-02-19T04:06:58.092Z,14.65
2019-02-19T04:09:31.276Z,16.50
2019-02-19T04:12:01.377Z,15.53
2019-02-19T04:14:31.481Z,15.85
2019-02-19T04:17:09.197Z,15.13
2019-02-19T04:19:45.361Z,15.05
2019-02-19T04:22:15.460Z,14.05
2019-02-19T04:24:45.555Z,14.83
2019-02-19T04:27:22.789Z,14.98
2019-02-19T04:29:53.820Z,15.13
2019-02-19T04:32:25.892Z,14.13
2019-02-19T04:34:55.984Z,14.80
2019-02-19T04:37:26.087Z,14.55
2019-02-19T04:39:57.160Z,14.78
2019-02-19T04:42:36.339Z,14.63
2019-02-19T04:45:09.839Z,15.40
2019-02-19T04:47:39.915Z,15.90
2019-02-19T04:50:13.101Z,16.75
2019-02-19T04:52:58.395Z,15.78
2019-02-19T04:55:28.491Z,15.40
2019-02-19T04:58:05.499Z,16.27
2019-02-19T05:00:35.849Z,15.32
2019-02-19T05:03:12.895Z,15.53
2019-02-19T05:05:42.995Z,15.08
2019-02-19T05:08:17.769Z,14.07
2019-02-19T05:10:51.831Z,13.85
2019-02-19T05:13:22.879Z,14.85
2019-02-19T05:15:53.924Z,13.80
2019-02-19T05:18:28.070Z,13.43
2019-02-19T05:20:58.131Z,14.40
2019-02-19T05:23:29.210Z,14.28
2019-02-19T05:26:00.950Z,15.05
2019-02-19T05:28:33.028Z,13.95
2019-02-19T05:31:03.124Z,14.45
2019-02-19T05:33:34.207Z,12.98
2019-02-19T05:36:05.307Z,16.40
2019-02-19T05:38:36.343Z,15.23
2019-02-19T05:41:06.465Z,14.83
2019-02-19T05:43:37.517Z,14.20
2019-02-19T05:46:07.652Z,14.45
2019-02-19T05:48:37.753Z,15.45
2019-02-19T05:51:10.838Z,13.58
2019-02-19T05:53:40.953Z,15.25
2019-02-19T05:56:11.999Z,17.23
2019-02-19T05:58:42.140Z,18.92
2019-02-19T06:01:13.293Z,18.60
2019-02-19T06:03:43.404Z,18.37
2019-02-19T06:06:14.422Z,18.37
2019-02-19T06:08:44.512Z,19.30
2019-02-19T06:11:15.623Z,18.82
2019-02-19T06:13:45.957Z,17.77
2019-02-19T06:16:17.964Z,17.75
2019-02-19T06:18:49.004Z,17.95
2019-02-19T06:21:20.113Z,19.10
2019-02-19T06:23:53.261Z,17.90
2019-02-19T06:26:24.269Z,18.20
2019-02-19T06:28:57.724Z,17.20
2019-02-19T06:31:34.170Z,17.70
2019-02-19T06:34:04.273Z,15.85
2019-02-19T06:36:34.392Z,14.28
2019-02-19T06:39:05.524Z,14.78
2019-02-19T06:41:35.676Z,15.43
2019-02-19T06:44:05.758Z,14.80
2019-02-19T06:46:36.792Z,14.70
2019-02-19T06:49:07.838Z,16.40
2019-02-19T06:51:38.912Z,15.20
2019-02-19T06:54:09.064Z,16.60
2019-02-19T06:56:40.132Z,14.15
2019-02-19T06:59:11.179Z,16.70
2019-02-19T07:01:45.618Z,15.40
2019-02-19T07:04:17.501Z,14.15
2019-02-19T07:06:47.588Z,15.10
2019-02-19T07:09:18.612Z,13.90
2019-02-19T07:11:48.700Z,12.35
2019-02-19T07:14:18.824Z,13.75
2019-02-19T07:16:50.841Z,14.25
2019-02-19T07:19:21.852Z,13.15
2019-02-19T07:21:52.892Z,13.05
2019-02-19T07:24:23.354Z,11.95
2019-02-19T07:26:53.468Z,13.35
2019-02-19T07:29:23.576Z,13.15
2019-02-19T07:31:53.875Z,11.43
2019-02-19T07:34:23.931Z,11.18
2019-02-19T07:36:54.021Z,12.25
2019-02-19T07:39:25.644Z,11.83
2019-02-19T07:41:55.788Z,11.50
2019-02-19T07:44:25.869Z,11.28
2019-02-19T07:46:55.952Z,11.25
2019-02-19T07:49:26.068Z,11.48
2019-02-19T07:51:57.139Z,11.33
2019-02-19T07:54:27.220Z,12.05
2019-02-19T07:56:57.312Z,11.33
2019-02-19T07:59:29.368Z,9.50
2019-02-19T08:02:05.341Z,11.33
2019-02-19T08:04:36.372Z,10.68
2019-02-19T08:07:07.148Z,11.38
2019-02-19T08:09:37.236Z,10.10
2019-02-19T08:12:09.288Z,11.03
2019-02-19T08:14:48.220Z,10.65
2019-02-19T08:17:19.260Z,10.85
2019-02-19T08:19:56.060Z,10.18
2019-02-19T08:22:26.160Z,11.20
2019-02-19T08:24:56.280Z,9.90
2019-02-19T08:27:27.252Z,10.50
2019-02-19T08:29:57.348Z,10.63
2019-02-19T08:32:30.044Z,11.15
2019-02-19T08:35:03.040Z,11.30
2019-02-19T08:37:33.150Z,10.87
2019-02-19T08:40:03.236Z,11.33
2019-02-19T08:42:33.348Z,11.53
2019-02-19T08:45:04.197Z,11.13
2019-02-19T08:47:42.789Z,11.20
2019-02-19T08:50:10.696Z,10.80
2019-02-19T08:52:47.649Z,11.60
2019-02-19T08:55:23.480Z,10.20
2019-02-19T08:57:57.471Z,11.00
2019-02-19T09:00:31.537Z,10.70
2019-02-19T09:03:04.739Z,10.77
2019-02-19T09:05:37.925Z,9.60
2019-02-19T09:08:08.012Z,10.40
2019-02-19T09:10:39.098Z,9.97
2019-02-19T09:13:09.213Z,10.07
2019-02-19T09:15:39.358Z,9.67
2019-02-19T09:18:10.563Z,9.70
2019-02-19T09:20:40.668Z,8.27
2019-02-19T09:23:10.756Z,9.50
2019-02-19T09:25:42.870Z,9.23
2019-02-19T09:28:22.176Z,8.93
2019-02-19T09:30:52.301Z,8.63
2019-02-19T09:33:22.384Z,8.00
2019-02-19T09:35:52.477Z,7.80
2019-02-19T09:38:24.526Z,7.40
2019-02-19T09:40:54.625Z,7.27
2019-02-19T09:43:24.732Z,8.00
2019-02-19T09:45:55.758Z,7.40
2019-02-19T09:48:25.837Z,6.87
2019-02-19T09:50:56.828Z,7.83
2019-02-19T09:53:29.905Z,7.23
2019-02-19T09:56:00.970Z,6.50
2019-02-19T09:58:35.073Z,8.00
2019-02-19T10:01:05.525Z,6.70
2019-02-19T10:03:35.617Z,6.43
2019-02-19T10:06:05.709Z,7.40
2019-02-19T10:08:44.019Z,7.20
2019-02-19T10:11:15.094Z,7.43
2019-02-19T10:13:45.185Z,5.97
2019-02-19T10:16:15.317Z,5.73
2019-02-19T10:18:45.382Z,5.53
2019-02-19T10:21:15.493Z,5.80
2019-02-19T10:23:53.360Z,5.87
2019-02-19T10:26:26.137Z,5.93
2019-02-19T10:29:06.933Z,5.80
2019-02-19T10:31:37.048Z,5.87
2019-02-19T10:34:13.045Z,5.20
2019-02-19T10:36:43.163Z,6.00
2019-02-19T10:39:13.244Z,6.17
2019-02-19T10:41:43.333Z,6.37
2019-02-19T10:44:16.017Z,6.30
2019-02-19T10:46:48.005Z,5.40
2019-02-19T10:49:19.634Z,6.40
2019-02-19T10:51:52.934Z,6.00
2019-02-19T10:54:23.024Z,6.87
2019-02-19T10:56:55.108Z,7.03
2019-02-19T10:59:26.352Z,7.10
2019-02-19T11:01:56.440Z,7.90
2019-02-19T11:04:26.540Z,6.10
2019-02-19T11:06:56.648Z,7.73
2019-02-19T11:09:26.756Z,6.70
2019-02-19T11:11:58.107Z,6.97
2019-02-19T11:14:28.430Z,7.00
2019-02-19T11:17:06.516Z,7.97
2019-02-19T11:19:42.389Z,7.10
2019-02-19T11:22:13.613Z,6.83
2019-02-19T11:24:43.762Z,6.20
2019-02-19T11:27:16.734Z,7.00
2019-02-19T11:29:47.037Z,6.80
2019-02-19T11:32:17.147Z,7.07
2019-02-19T11:34:47.225Z,6.67
2019-02-19T11:37:17.445Z,6.87
2019-02-19T11:39:56.650Z,6.33
2019-02-19T11:42:26.721Z,6.97
2019-02-19T11:44:57.564Z,6.60
2019-02-19T11:47:27.645Z,6.33
2019-02-19T11:50:00.807Z,5.73
2019-02-19T11:52:37.854Z,6.27
2019-02-19T11:55:15.565Z,6.77
2019-02-19T11:57:47.641Z,5.37
2019-02-19T12:00:20.381Z,6.33
2019-02-19T12:02:52.533Z,5.97
2019-02-19T12:05:28.425Z,6.40
2019-02-19T12:08:05.305Z,6.10
2019-02-19T12:10:35.397Z,5.97
2019-02-19T12:13:06.481Z,6.27
2019-02-19T12:15:37.514Z,7.07
2019-02-19T12:18:08.565Z,7.15
2019-02-19T12:20:42.849Z,5.80
2019-02-19T12:23:12.938Z,6.20
2019-02-19T12:25:43.029Z,7.80
2019-02-19T12:28:14.041Z,6.60
2019-02-19T12:30:44.157Z,6.23
2019-02-19T12:33:19.957Z,6.83
2019-02-19T12:35:51.969Z,6.00
2019-02-19T12:38:22.073Z,6.80
2019-02-19T12:40:54.153Z,7.57
2019-02-19T12:43:24.257Z,8.05
2019-02-19T12:45:54.349Z,7.07
2019-02-19T12:48:25.996Z,6.80
2019-02-19T12:50:56.087Z,6.40
2019-02-19T12:53:26.183Z,7.13
2019-02-19T12:55:56.269Z,6.83
2019-02-19T12:58:27.333Z,7.73
2019-02-19T13:00:59.485Z,6.90
2019-02-19T13:03:29.582Z,7.17
2019-02-19T13:05:59.665Z,6.93
2019-02-19T13:08:31.705Z,6.63
2019-02-19T13:11:07.661Z,6.97
2019-02-19T13:13:38.649Z,6.20
2019-02-19T13:16:09.704Z,6.53
2019-02-19T13:18:41.709Z,6.00
2019-02-19T13:21:11.807Z,5.20
2019-02-19T13:23:47.669Z,6.30
2019-02-19T13:26:23.738Z,5.90
2019-02-19T13:28:54.769Z,5.13
2019-02-19T13:31:24.857Z,6.23
2019-02-19T13:33:54.949Z,6.47
2019-02-19T13:36:32.081Z,6.57
2019-02-19T13:39:04.811Z,5.37
2019-02-19T13:41:40.841Z,6.13
2019-02-19T13:44:11.225Z,6.47
2019-02-19T13:46:43.721Z,5.28
2019-02-19T13:49:28.596Z,6.60
2019-02-19T13:52:02.600Z,7.08
2019-02-19T13:54:32.773Z,6.33
2019-02-19T13:57:03.869Z,6.83
2019-02-19T13:59:33.941Z,6.28
2019-02-19T14:02:04.937Z,6.92
2019-02-19T14:04:36.975Z,6.00
2019-02-19T14:07:07.057Z,5.45
2019-02-19T14:09:44.189Z,5.75
2019-02-19T14:12:14.281Z,7.12
2019-02-19T14:14:49.666Z,7.22
2019-02-19T14:17:20.742Z,7.42
2019-02-19T14:19:52.462Z,7.75
2019-02-19T14:22:38.989Z,7.08
2019-02-19T14:25:14.063Z,7.03
2019-02-19T14:28:00.245Z,6.47
2019-02-19T14:30:48.470Z,8.15
2019-02-19T14:33:23.618Z,7.72
2019-02-19T14:36:07.379Z,9.03
2019-02-19T14:38:55.466Z,8.90
2019-02-19T14:41:44.106Z,8.83
2019-02-19T14:44:27.610Z,7.72
2019-02-19T14:47:05.438Z,8.05
2019-02-19T14:49:57.815Z,8.10
2019-02-19T14:52:29.545Z,9.00
2019-02-19T14:55:06.094Z,8.30
2019-02-19T14:57:54.044Z,8.05
2019-02-19T15:00:50.813Z,8.33
2019-02-19T15:03:40.558Z,9.30
2019-02-19T15:06:22.466Z,8.30
2019-02-19T15:09:11.264Z,9.15
2019-02-19T15:11:55.871Z,8.48
2019-02-19T15:14:27.612Z,9.80
2019-02-19T15:17:13.866Z,9.65
2019-02-19T15:19:51.260Z,8.93
2019-02-19T15:22:29.650Z,9.05
2019-02-19T15:25:17.822Z,10.13
2019-02-19T15:28:04.435Z,9.98
2019-02-19T15:30:53.506Z,10.88
2019-02-19T15:33:40.218Z,9.88
2019-02-19T15:36:42.247Z,8.75
2019-02-19T15:39:29.522Z,9.70
2019-02-19T15:42:11.770Z,10.63
2019-02-19T15:45:07.634Z,10.85
2019-02-19T15:47:48.078Z,9.53
2019-02-19T15:50:40.180Z,9.15
2019-02-19T15:53:27.299Z,9.90
2019-02-19T15:56:01.771Z,10.23
2019-02-19T15:58:51.709Z,9.33
2019-02-19T16:01:23.420Z,9.63
2019-02-19T16:03:59.035Z,10.43
2019-02-19T16:06:50.479Z,9.95
2019-02-19T16:09:24.186Z,10.70
2019-02-19T16:11:56.808Z,10.38
2019-02-19T16:14:31.425Z,10.75
2019-02-19T16:17:30.122Z,10.15
2019-02-19T16:20:02.855Z,11.70
2019-02-19T16:22:38.146Z,10.60
2019-02-19T16:25:11.054Z,11.63
2019-02-19T16:28:10.894Z,10.18
2019-02-19T16:30:56.371Z,11.20
2019-02-19T16:33:28.105Z,10.23
2019-02-19T16:36:00.818Z,10.35
2019-02-19T16:38:40.282Z,12.10
2019-02-19T16:41:18.706Z,10.00
2019-02-19T16:43:56.185Z,10.75
2019-02-19T16:46:44.064Z,11.20
2019-02-19T16:49:18.498Z,10.93
2019-02-19T16:51:52.677Z,9.90
2019-02-19T16:54:26.806Z,11.05
2019-02-19T16:57:14.930Z,11.93
2019-02-19T16:59:52.854Z,11.12
2019-02-19T17:02:24.576Z,10.38
2019-02-19T17:04:59.002Z,12.70
2019-02-19T17:07:49.350Z,12.00
2019-02-19T17:10:30.600Z,10.75
2019-02-19T17:13:24.692Z,10.85
2019-02-19T17:16:05.309Z,11.50
2019-02-19T17:18:53.895Z,11.20
2019-02-19T17:21:34.419Z,10.38
2019-02-19T17:24:09.743Z,12.20
2019-02-19T17:26:57.766Z,11.10
2019-02-19T17:29:37.182Z,12.60
2019-02-19T17:32:12.274Z,12.93
2019-02-19T17:34:44.043Z,13.48
2019-02-19T17:37:15.775Z,12.95
2019-02-19T17:39:53.170Z,13.65
2019-02-19T17:42:27.362Z,12.10
2019-02-19T17:45:19.999Z,12.28
2019-02-19T17:47:54.418Z,16.23
2019-02-19T17:50:38.512Z,17.02
2019-02-19T17:53:16.657Z,12.85
2019-02-19T17:55:54.101Z,13.15
2019-02-19T17:58:25.830Z,13.10
2019-02-19T18:01:00.732Z,15.60
2019-02-19T18:03:33.444Z,17.50
2019-02-19T18:06:12.429Z,19.32
2019-02-19T18:08:46.042Z,21.20
2019-02-19T18:11:23.576Z,31.33
2019-02-19T18:13:58.851Z,29.67
2019-02-19T18:16:30.587Z,27.42
2019-02-19T18:19:02.559Z,28.00
2019-02-19T18:21:33.632Z,27.35
2019-02-19T18:24:03.715Z,26.95
2019-02-19T18:26:34.748Z,25.15
2019-02-19T18:29:15.887Z,23.83
2019-02-19T18:31:54.244Z,22.07
2019-02-19T18:34:42.700Z,35.17
2019-02-19T18:37:14.711Z,25.77
2019-02-19T18:39:46.759Z,22.70
2019-02-19T18:42:16.859Z,22.80
2019-02-19T18:44:48.951Z,24.07
2019-02-19T18:47:29.142Z,25.60
2019-02-19T18:50:01.159Z,24.12
2019-02-19T18:52:31.235Z,21.85
2019-02-19T18:55:01.319Z,22.93
2019-02-19T18:57:34.580Z,22.42
2019-02-19T19:00:07.135Z,23.83
2019-02-19T19:02:38.119Z,28.95
2019-02-19T19:05:09.307Z,28.27
2019-02-19T19:07:40.403Z,30.90
2019-02-19T19:10:12.207Z,39.20
2019-02-19T19:12:42.736Z,46.90
2019-02-19T19:15:12.924Z,41.95
2019-02-19T19:17:43.027Z,41.85
2019-02-19T19:20:13.358Z,42.00
2019-02-19T19:22:43.436Z,29.60
2019-02-19T19:25:14.439Z,24.35
2019-02-19T19:27:44.551Z,22.67
2019-02-19T19:30:16.915Z,25.60
2019-02-19T19:32:46.999Z,24.02
2019-02-19T19:35:26.194Z,26.48
2019-02-19T19:37:57.327Z,23.60
2019-02-19T19:40:27.415Z,24.18
2019-02-19T19:42:57.505Z,21.68
2019-02-19T19:45:27.600Z,21.68
2019-02-19T19:47:59.611Z,20.37
2019-02-19T19:50:31.671Z,21.55
2019-02-19T19:53:01.763Z,21.05
2019-02-19T19:55:31.853Z,21.90
2019-02-19T19:58:01.939Z,21.55
2019-02-19T20:00:32.028Z,22.70
2019-02-19T20:03:02.135Z,24.37
2019-02-19T20:05:44.304Z,24.72
2019-02-19T20:08:14.407Z,22.25
2019-02-19T20:10:44.499Z,23.92
2019-02-19T20:13:16.579Z,25.52
2019-02-19T20:15:46.757Z,23.30
2019-02-19T20:18:17.419Z,27.98
2019-02-19T20:20:54.135Z,27.15
2019-02-19T20:23:23.644Z,27.35
2019-02-19T20:25:59.449Z,28.20
2019-02-19T20:28:29.531Z,25.88
2019-02-19T20:31:03.844Z,27.37
2019-02-19T20:33:42.199Z,28.73
2019-02-19T20:36:13.308Z,26.05
2019-02-19T20:38:43.406Z,26.10
2019-02-19T20:41:13.495Z,26.82
2019-02-19T20:43:43.629Z,25.45
2019-02-19T20:46:22.728Z,24.85
2019-02-19T20:48:53.763Z,26.70
2019-02-19T20:51:23.835Z,24.45
2019-02-19T20:53:53.942Z,22.15
2019-02-19T20:56:30.131Z,29.52
2019-02-19T20:59:03.363Z,25.12
2019-02-19T21:01:33.452Z,26.30
2019-02-19T21:04:06.217Z,28.73
2019-02-19T21:06:38.315Z,26.57
2019-02-19T21:09:13.051Z,28.47
2019-02-19T21:11:45.139Z,27.85
2019-02-19T21:14:21.271Z,27.25
2019-02-19T21:16:54.308Z,23.75
2019-02-19T21:19:24.503Z,27.13
2019-02-19T21:21:54.608Z,24.85
2019-02-19T21:24:24.735Z,28.05
2019-02-19T21:26:54.828Z,26.95
2019-02-19T21:29:24.941Z,29.25
2019-02-19T21:31:58.251Z,30.57
2019-02-19T21:34:28.353Z,29.02
2019-02-19T21:37:01.980Z,29.72
2019-02-19T21:39:32.072Z,26.15
2019-02-19T21:42:02.404Z,25.95
2019-02-19T21:44:33.431Z,25.00
2019-02-19T21:47:04.740Z,24.30
2019-02-19T21:49:35.836Z,27.13
2019-02-19T21:52:05.936Z,26.68
2019-02-19T21:54:36.022Z,25.12
2019-02-19T21:57:08.511Z,26.55
2019-02-19T21:59:38.615Z,25.20
2019-02-19T22:02:16.368Z,27.75
2019-02-19T22:04:44.757Z,29.07
2019-02-19T22:07:15.767Z,28.00
2019-02-19T22:09:45.862Z,29.35
2019-02-19T22:12:17.885Z,29.27
2019-02-19T22:14:47.975Z,28.95
2019-02-19T22:17:22.107Z,30.37
2019-02-19T22:20:00.856Z,29.77
2019-02-19T22:22:24.059Z,31.82
2019-02-19T22:24:54.135Z,28.80
2019-02-19T22:27:24.236Z,29.57
2019-02-19T22:29:57.448Z,30.90
2019-02-19T22:32:28.643Z,31.02
2019-02-19T22:35:02.584Z,28.83
2019-02-19T22:37:38.703Z,31.12
2019-02-19T22:40:09.575Z,33.65
2019-02-19T22:42:41.595Z,33.85
2019-02-19T22:45:14.515Z,31.20
2019-02-19T22:47:53.002Z,30.57
2019-02-19T22:50:18.331Z,42.17
2019-02-19T22:52:48.426Z,34.48
2019-02-19T22:55:25.635Z,31.42
2019-02-19T22:57:55.726Z,29.25
2019-02-19T23:00:49.445Z,32.23
2019-02-19T23:03:21.232Z,33.02
2019-02-19T23:05:51.318Z,32.50
2019-02-19T23:08:21.409Z,30.65
2019-02-19T23:10:51.499Z,27.58
2019-02-19T23:13:22.571Z,31.55
2019-02-19T23:15:52.676Z,27.70
2019-02-19T23:18:23.721Z,29.15
2019-02-19T23:20:53.823Z,31.35
2019-02-19T23:23:23.911Z,29.55
2019-02-19T23:25:54.012Z,31.90
2019-02-19T23:28:24.104Z,31.27
2019-02-19T23:30:54.200Z,36.25
2019-02-19T23:33:25.247Z,33.85
2019-02-19T23:35:57.911Z,32.65
2019-02-19T23:38:28.001Z,31.70
2019-02-19T23:40:58.095Z,32.03
2019-02-19T23:43:28.183Z,31.97
2019-02-19T23:45:59.225Z,32.55
2019-02-19T23:48:29.303Z,33.25
2019-02-19T23:50:59.388Z,32.83
2019-02-19T23:53:29.500Z,31.42
2019-02-19T23:55:59.600Z,32.00
2019-02-19T23:58:29.684Z,34.25
